Time;durP1;ratioP1;P1;durP2;ratioP2;P2;SDS_P1;SDS_P2;PMS_P1;PMS_P2;Temp;Humidity;BMP_temperature;BMP_pressure;BME280_temperature;BME280_humidity;BME280_pressure;Samples;Min_cycle;Max_cycle;Signal;HPM_P1;HPM_P2
2021/01/14 05:01:46;;;;;;;;;;;3.50;99.90;;;;;;5397861;23;20020;-65
2021/01/14 05:04:15;;;;;;;;;;;3.50;99.90;;;;;;4997193;28;19952;-64
2021/01/14 05:06:43;;;;;;;;;;;3.50;99.90;;;;;;4997628;28;19922;-64
2021/01/14 05:09:14;;;;;;;;;;;3.50;99.90;;;;;;5037219;23;19976;-66
2021/01/14 05:11:42;;;;;;;;;;;3.50;99.90;;;;;;4999009;28;19929;-68
2021/01/14 05:14:08;;;;;;;;;;;3.50;99.90;;;;;;4997549;28;20364;-67
2021/01/14 05:16:35;;;;;;;;;;;3.60;99.90;;;;;;4997294;28;19925;-68
2021/01/14 05:19:02;;;;;;;;;;;3.50;99.90;;;;;;4997336;28;19921;-67
2021/01/14 05:21:31;;;;;;;;;;;3.50;99.90;;;;;;4997942;28;19922;-67
2021/01/14 05:24:07;;;;;;;;;;;3.50;99.90;;;;;;4998840;28;19929;-66
2021/01/14 05:26:33;;;;;;;;;;;3.50;99.90;;;;;;4998388;28;19922;-66
2021/01/14 05:29:10;;;;;;;;;;;3.50;99.90;;;;;;4998526;28;20273;-65
2021/01/14 05:31:36;;;;;;;;;;;3.40;99.90;;;;;;4999112;28;19929;-67
2021/01/14 05:34:03;;;;;;;;;;;3.40;99.90;;;;;;4999236;28;19932;-67
2021/01/14 05:36:50;;;;;;;;;;;3.30;99.90;;;;;;4999096;28;19945;-66
2021/01/14 05:39:17;;;;;;;;;;;3.40;99.90;;;;;;4998075;28;19929;-65
2021/01/14 05:41:43;;;;;;;;;;;3.30;99.90;;;;;;4998535;28;19921;-66
2021/01/14 05:44:09;;;;;;;;;;;3.30;99.90;;;;;;4998504;28;19929;-66
2021/01/14 05:46:35;;;;;;;;;;;3.40;99.90;;;;;;4998729;28;20172;-65
2021/01/14 05:49:04;;;;;;;;;;;3.30;99.90;;;;;;4997560;28;19922;-66
2021/01/14 05:51:31;;;;;;;;;;;3.30;99.90;;;;;;4997524;28;19940;-66
2021/01/14 05:53:58;;;;;;;;;;;3.30;99.90;;;;;;4996872;28;19922;-67
2021/01/14 05:56:27;;;;;;;;;;;3.30;99.90;;;;;;4997517;28;19968;-66
2021/01/14 05:58:55;;;;;;;;;;;3.30;99.90;;;;;;4997042;28;19925;-66
2021/01/14 06:01:22;;;;;;;;;;;3.30;99.90;;;;;;4996945;28;19972;-65
2021/01/14 06:03:49;;;;;;;;;;;3.30;99.90;;;;;;4996973;28;19925;-65
2021/01/14 06:06:16;;;;;;;;;;;3.30;99.90;;;;;;4996227;28;19922;-66
2021/01/14 06:08:42;;;;;;;;;;;3.30;99.90;;;;;;4996269;28;19964;-67
2021/01/14 06:11:17;;;;;;;;;;;3.30;99.90;;;;;;4996780;28;19965;-67
2021/01/14 06:13:43;;;;;;;;;;;3.30;99.90;;;;;;4997230;28;19957;-67
2021/01/14 06:16:09;;;;;;;;;;;3.30;99.90;;;;;;4997041;28;20163;-65
2021/01/14 06:18:35;;;;;;;;;;;3.40;99.90;;;;;;4997930;28;19926;-65
2021/01/14 06:21:01;;;;;;;;;;;3.30;99.90;;;;;;4998264;28;19944;-65
2021/01/14 06:23:43;;;;;;;;;;;3.30;99.90;;;;;;4998740;28;19921;-66
2021/01/14 06:26:09;;;;;;;;;;;3.40;99.90;;;;;;4998280;28;20324;-65
2021/01/14 06:28:35;;;;;;;;;;;3.30;99.90;;;;;;4998080;28;19922;-66
2021/01/14 06:31:02;;;;;;;;;;;3.40;99.90;;;;;;4998414;28;19921;-66
2021/01/14 06:33:28;;;;;;;;;;;3.40;99.90;;;;;;4997770;28;19967;-66
2021/01/14 06:36:02;;;;;;;;;;;3.30;99.90;;;;;;4997833;28;19922;-66
2021/01/14 06:38:33;;;;;;;;;;;3.30;99.90;;;;;;4997744;28;19922;-66
2021/01/14 06:41:01;;;;;;;;;;;3.40;99.90;;;;;;4997914;28;19922;-67
2021/01/14 06:43:28;;;;;;;;;;;3.30;99.90;;;;;;4997555;28;19922;-66
2021/01/14 06:46:00;;;;;;;;;;;3.30;99.90;;;;;;5001649;28;19929;-65
2021/01/14 06:48:29;;;;;;;;;;;3.30;99.90;;;;;;5001807;28;19976;-65
2021/01/14 06:51:02;;;;;;;;;;;3.30;99.90;;;;;;5004526;28;20293;-65
2021/01/14 06:53:28;;;;;;;;;;;3.30;99.90;;;;;;5002577;28;19929;-66
2021/01/14 06:55:55;;;;;;;;;;;3.30;99.90;;;;;;5003028;28;20392;-66
2021/01/14 06:58:22;;;;;;;;;;;3.40;99.90;;;;;;5003796;28;19929;-66
2021/01/14 07:00:48;;;;;;;;;;;3.40;99.90;;;;;;5003560;28;19928;-65
2021/01/14 07:03:21;;;;;;;;;;;3.30;99.90;;;;;;5001316;28;20315;-66
2021/01/14 07:05:59;;;;;;;;;;;3.30;99.90;;;;;;5001578;28;20044;-66
2021/01/14 07:08:32;;;;;;;;;;;3.40;99.90;;;;;;5001123;28;19922;-66
2021/01/14 07:11:03;;;;;;;;;;;3.50;99.90;;;;;;5000612;28;19928;-65
2021/01/14 07:13:32;;;;;;;;;;;3.40;99.90;;;;;;5001248;28;20032;-65
2021/01/14 07:15:59;;;;;;;;;;;3.40;99.90;;;;;;5000800;28;19925;-65
2021/01/14 07:18:26;;;;;;;;;;;3.40;99.90;;;;;;5001204;28;19961;-65
2021/01/14 07:20:53;;;;;;;;;;;3.30;99.90;;;;;;5001089;28;19929;-66
2021/01/14 07:23:20;;;;;;;;;;;3.30;99.90;;;;;;5001404;28;19925;-66
2021/01/14 07:25:46;;;;;;;;;;;3.20;99.90;;;;;;5000954;28;19929;-65
2021/01/14 07:28:13;;;;;;;;;;;3.20;99.90;;;;;;5001047;28;19929;-66
2021/01/14 07:30:39;;;;;;;;;;;3.20;99.90;;;;;;5000326;28;20395;-65
2021/01/14 07:33:06;;;;;;;;;;;3.30;99.90;;;;;;5000862;28;20254;-65
2021/01/14 07:35:39;;;;;;;;;;;3.30;99.90;;;;;;5000359;28;19921;-65
2021/01/14 07:38:07;;;;;;;;;;;3.30;99.90;;;;;;5000497;28;19921;-65
2021/01/14 07:40:33;;;;;;;;;;;3.30;99.90;;;;;;5000200;28;20396;-67
2021/01/14 07:43:02;;;;;;;;;;;3.20;99.90;;;;;;5000747;28;19921;-65
2021/01/14 07:45:29;;;;;;;;;;;3.20;99.90;;;;;;5001133;28;19922;-66
2021/01/14 07:47:56;;;;;;;;;;;3.20;99.90;;;;;;5000664;28;19922;-65
2021/01/14 07:50:24;;;;;;;;;;;3.20;99.90;;;;;;4999920;28;19961;-65
2021/01/14 07:52:51;;;;;;;;;;;3.20;99.90;;;;;;5000158;28;20230;-65
2021/01/14 07:55:26;;;;;;;;;;;3.20;99.90;;;;;;5002132;28;19929;-66
2021/01/14 07:58:01;;;;;;;;;;;3.20;99.90;;;;;;5002046;28;19921;-66
2021/01/14 08:00:29;;;;;;;;;;;3.30;99.90;;;;;;5002357;28;19921;-66
2021/01/14 08:03:09;;;;;;;;;;;3.30;99.90;;;;;;5001391;28;19922;-66
2021/01/14 08:05:41;;;;;;;;;;;3.40;99.90;;;;;;5001435;28;19921;-66
2021/01/14 08:08:26;;;;;;;;;;;3.40;99.90;;;;;;5001606;28;20017;-66
2021/01/14 08:11:06;;;;;;;;;;;3.40;99.90;;;;;;5000072;28;19921;-66
2021/01/14 08:13:32;;;;;;;;;;;3.30;99.90;;;;;;5001366;28;19929;-66
2021/01/14 08:15:59;;;;;;;;;;;3.40;99.90;;;;;;5001962;28;20404;-66
2021/01/14 08:18:25;;;;;;;;;;;3.40;99.90;;;;;;5001365;28;19968;-66
2021/01/14 08:21:06;;;;;;;;;;;3.50;99.90;;;;;;5001568;28;19925;-66
2021/01/14 08:23:32;;;;;;;;;;;3.50;99.90;;;;;;5000747;28;19976;-66
2021/01/14 08:26:07;;;;;;;;;;;3.40;99.90;;;;;;5000996;28;19922;-66
2021/01/14 08:28:33;;;;;;;;;;;3.50;99.90;;;;;;5000999;28;19925;-66
2021/01/14 08:31:00;;;;;;;;;;;3.40;99.90;;;;;;4999853;28;19930;-66
2021/01/14 08:33:27;;;;;;;;;;;3.40;99.90;;;;;;4998579;28;19929;-67
2021/01/14 08:36:03;;;;;;;;;;;3.40;99.90;;;;;;4998949;28;19925;-67
2021/01/14 08:38:29;;;;;;;;;;;3.40;99.90;;;;;;4998338;28;20278;-66
2021/01/14 08:40:55;;;;;;;;;;;3.40;99.90;;;;;;4998235;28;20439;-66
2021/01/14 08:43:21;;;;;;;;;;;3.40;99.90;;;;;;4997984;28;19928;-67
2021/01/14 08:45:48;;;;;;;;;;;3.40;99.90;;;;;;5003225;28;19989;-67
2021/01/14 08:48:21;;;;;;;;;;;3.40;99.90;;;;;;5001769;28;20439;-65
2021/01/14 08:50:48;;;;;;;;;;;3.40;99.90;;;;;;4996967;28;19922;-67
2021/01/14 08:53:27;;;;;;;;;;;3.30;99.90;;;;;;4997014;28;19922;-67
2021/01/14 08:55:54;;;;;;;;;;;3.30;99.90;;;;;;4996668;28;19926;-66
2021/01/14 08:58:21;;;;;;;;;;;3.30;99.90;;;;;;4996647;28;19922;-67
2021/01/14 09:00:47;;;;;;;;;;;3.30;99.90;;;;;;4996533;28;20296;-66
2021/01/14 09:03:14;;;;;;;;;;;3.20;99.90;;;;;;4996742;28;19922;-66
2021/01/14 09:05:44;;;;;;;;;;;3.20;99.90;;;;;;4997504;28;19930;-66
2021/01/14 09:08:10;;;;;;;;;;;3.70;99.90;;;;;;4996832;28;20016;-66
2021/01/14 09:10:54;;;;;;;;;;;4.00;99.90;;;;;;4999527;28;19922;-66
2021/01/14 09:13:20;;;;;;;;;;;4.20;99.90;;;;;;4999941;28;19922;-66
2021/01/14 09:15:47;;;;;;;;;;;4.20;99.90;;;;;;5000570;28;19929;-67
2021/01/14 09:18:14;;;;;;;;;;;4.20;99.90;;;;;;4999641;28;19929;-66
2021/01/14 09:20:40;;;;;;;;;;;4.20;99.90;;;;;;4998928;28;19922;-66
2021/01/14 09:23:20;;;;;;;;;;;4.00;99.90;;;;;;4997575;28;20332;-66
2021/01/14 09:25:47;;;;;;;;;;;4.00;99.90;;;;;;4998709;28;19965;-66
2021/01/14 09:28:14;;;;;;;;;;;3.70;99.90;;;;;;4998149;28;19921;-66
2021/01/14 09:30:41;;;;;;;;;;;3.70;99.90;;;;;;4997572;28;19930;-66
2021/01/14 09:33:07;;;;;;;;;;;3.70;99.90;;;;;;4997645;28;19925;-66
2021/01/14 09:35:33;;;;;;;;;;;3.70;99.90;;;;;;4997634;28;19975;-66
2021/01/14 09:37:59;;;;;;;;;;;3.60;99.90;;;;;;4998536;28;19926;-66
2021/01/14 09:40:26;;;;;;;;;;;3.60;99.90;;;;;;4998279;28;19922;-66
2021/01/14 09:42:52;;;;;;;;;;;3.60;99.90;;;;;;4996948;28;19922;-66
2021/01/14 09:45:19;;;;;;;;;;;3.70;99.90;;;;;;4998198;28;19922;-66
2021/01/14 09:47:48;;;;;;;;;;;3.70;99.90;;;;;;4997257;28;19947;-66
2021/01/14 09:50:15;;;;;;;;;;;3.70;99.90;;;;;;4996041;28;20347;-66
2021/01/14 09:52:41;;;;;;;;;;;3.70;99.90;;;;;;4996827;28;19930;-66
2021/01/14 09:55:10;;;;;;;;;;;3.60;99.90;;;;;;4997170;28;19980;-66
2021/01/14 09:57:38;;;;;;;;;;;3.70;99.90;;;;;;4996113;28;19922;-66
2021/01/14 10:00:04;;;;;;;;;;;3.70;99.90;;;;;;4996836;28;19928;-66
2021/01/14 10:02:35;;;;;;;;;;;3.80;99.90;;;;;;4997158;28;19921;-66
2021/01/14 10:05:01;;;;;;;;;;;3.80;99.90;;;;;;4997511;28;19922;-67
2021/01/14 10:07:28;;;;;;;;;;;3.70;99.90;;;;;;4995118;28;19972;-68
2021/01/14 10:09:54;;;;;;;;;;;4.10;99.90;;;;;;4994653;28;19976;-67
2021/01/14 10:12:21;;;;;;;;;;;4.60;99.90;;;;;;4995048;28;19926;-67
2021/01/14 10:14:48;;;;;;;;;;;5.00;99.90;;;;;;4994957;28;19929;-68
2021/01/14 10:17:14;;;;;;;;;;;5.50;99.90;;;;;;4997613;28;19922;-67
2021/01/14 10:19:45;;;;;;;;;;;5.70;99.90;;;;;;4997788;28;19972;-67
2021/01/14 10:22:12;;;;;;;;;;;5.90;99.90;;;;;;4999562;28;20374;-68
2021/01/14 10:24:38;;;;;;;;;;;6.10;99.90;;;;;;4997419;28;20296;-67
2021/01/14 10:27:10;;;;;;;;;;;6.30;99.90;;;;;;4996077;28;19937;-66
2021/01/14 10:29:39;;;;;;;;;;;6.50;99.90;;;;;;4996448;28;19949;-65
2021/01/14 10:32:07;;;;;;;;;;;6.20;99.90;;;;;;4997035;28;20369;-67
2021/01/14 10:34:39;;;;;;;;;;;6.10;99.90;;;;;;4997001;28;19925;-68
2021/01/14 10:37:05;;;;;;;;;;;6.00;99.90;;;;;;4996969;28;19921;-66
2021/01/14 10:39:38;;;;;;;;;;;5.80;99.90;;;;;;4998754;28;19921;-66
2021/01/14 10:42:19;;;;;;;;;;;5.60;99.90;;;;;;5004694;28;20320;-66
2021/01/14 10:44:54;;;;;;;;;;;5.30;99.90;;;;;;4999566;28;19921;-65
2021/01/14 10:47:22;;;;;;;;;;;5.10;99.90;;;;;;4995968;28;19922;-66
2021/01/14 10:49:48;;;;;;;;;;;5.00;99.90;;;;;;4996846;28;19968;-65
2021/01/14 10:52:14;;;;;;;;;;;4.80;99.90;;;;;;4999318;28;19956;-65
2021/01/14 10:54:40;;;;;;;;;;;4.50;99.90;;;;;;4999001;28;19921;-67
2021/01/14 10:57:06;;;;;;;;;;;4.30;99.90;;;;;;4996895;28;19921;-66
2021/01/14 10:59:33;;;;;;;;;;;4.30;99.90;;;;;;4996056;28;19922;-67
2021/01/14 11:02:03;;;;;;;;;;;4.20;99.90;;;;;;4998264;28;19926;-65
2021/01/14 11:04:30;;;;;;;;;;;4.10;99.90;;;;;;4995221;28;20033;-66
2021/01/14 11:06:56;;;;;;;;;;;4.10;99.90;;;;;;4994930;28;19921;-67
2021/01/14 11:09:22;;;;;;;;;;;4.00;99.90;;;;;;4996685;28;19936;-66
2021/01/14 11:11:48;;;;;;;;;;;4.00;99.90;;;;;;4996332;28;19921;-68
2021/01/14 11:14:15;;;;;;;;;;;4.10;99.90;;;;;;4997535;28;19945;-67
2021/01/14 11:16:41;;;;;;;;;;;4.00;99.90;;;;;;4999585;28;20297;-66
2021/01/14 11:19:07;;;;;;;;;;;4.00;99.90;;;;;;5004000;28;20506;-66
2021/01/14 11:21:34;;;;;;;;;;;4.00;99.90;;;;;;5000950;28;19925;-66
2021/01/14 11:24:01;;;;;;;;;;;3.90;99.90;;;;;;5002368;28;19976;-67
2021/01/14 11:26:27;;;;;;;;;;;3.90;99.90;;;;;;5003097;28;20296;-66
2021/01/14 11:28:53;;;;;;;;;;;3.90;99.90;;;;;;4998844;28;19947;-66
2021/01/14 11:31:20;;;;;;;;;;;3.90;99.90;;;;;;4999730;28;19922;-66
2021/01/14 11:33:46;;;;;;;;;;;3.90;99.90;;;;;;5000247;28;19922;-66
2021/01/14 11:36:13;;;;;;;;;;;3.90;99.90;;;;;;5000045;28;20386;-65
2021/01/14 11:38:41;;;;;;;;;;;3.90;99.90;;;;;;4999576;28;19937;-66
2021/01/14 11:41:07;;;;;;;;;;;4.00;99.90;;;;;;4999078;28;20381;-66
2021/01/14 11:43:33;;;;;;;;;;;3.90;99.90;;;;;;5000696;28;20470;-66
2021/01/14 11:45:59;;;;;;;;;;;4.00;99.90;;;;;;4999078;28;19933;-67
2021/01/14 11:48:25;;;;;;;;;;;4.00;99.90;;;;;;4999187;28;19921;-66
2021/01/14 11:50:52;;;;;;;;;;;4.00;99.90;;;;;;4999477;28;19929;-66
2021/01/14 11:53:18;;;;;;;;;;;4.10;99.90;;;;;;5001631;28;19928;-66
2021/01/14 11:55:45;;;;;;;;;;;4.10;99.90;;;;;;5001968;28;19928;-66
2021/01/14 11:58:11;;;;;;;;;;;4.10;99.90;;;;;;5001422;28;19929;-66
2021/01/14 12:00:37;;;;;;;;;;;4.10;99.90;;;;;;5000969;28;19922;-66
2021/01/14 12:03:05;;;;;;;;;;;4.20;99.90;;;;;;5000251;28;19932;-66
2021/01/14 12:05:31;;;;;;;;;;;4.20;99.90;;;;;;5000229;28;19952;-66
2021/01/14 12:07:57;;;;;;;;;;;4.10;99.90;;;;;;5000289;28;19922;-66
2021/01/14 12:10:23;;;;;;;;;;;4.20;99.90;;;;;;4999881;28;19925;-66
2021/01/14 12:12:50;;;;;;;;;;;4.20;99.90;;;;;;5000338;28;19929;-66
2021/01/14 12:15:17;;;;;;;;;;;4.10;99.90;;;;;;5000077;28;19922;-67
2021/01/14 12:17:43;;;;;;;;;;;4.00;99.90;;;;;;5000447;28;19933;-65
2021/01/14 12:20:09;;;;;;;;;;;4.00;99.90;;;;;;5000228;28;19933;-65
2021/01/14 12:22:38;;;;;;;;;;;3.90;99.90;;;;;;5000105;28;19926;-65
2021/01/14 12:25:05;;;;;;;;;;;3.90;99.90;;;;;;4999702;28;20387;-67
2021/01/14 12:27:31;;;;;;;;;;;4.00;99.90;;;;;;5000020;28;19925;-66
2021/01/14 12:29:58;;;;;;;;;;;4.10;99.90;;;;;;4999455;28;19926;-66
2021/01/14 12:32:24;;;;;;;;;;;4.10;99.90;;;;;;4999563;28;19957;-66
2021/01/14 12:34:50;;;;;;;;;;;4.00;99.90;;;;;;4999600;28;19926;-66
2021/01/14 12:37:16;;;;;;;;;;;4.00;99.90;;;;;;5000289;28;19933;-66
2021/01/14 12:39:42;;;;;;;;;;;4.10;99.90;;;;;;4999786;28;19926;-66
2021/01/14 12:42:10;;;;;;;;;;;4.30;99.90;;;;;;4999143;28;19948;-66
2021/01/14 12:44:36;;;;;;;;;;;4.30;99.90;;;;;;5000286;28;19926;-66
2021/01/14 12:47:03;;;;;;;;;;;4.50;99.90;;;;;;4999549;28;20427;-66
2021/01/14 12:49:29;;;;;;;;;;;4.50;99.90;;;;;;4999631;28;19925;-66
2021/01/14 12:51:55;;;;;;;;;;;4.50;99.90;;;;;;4998548;28;20292;-66
2021/01/14 12:54:22;;;;;;;;;;;4.60;99.90;;;;;;4998542;28;19933;-65
2021/01/14 12:56:48;;;;;;;;;;;4.60;99.90;;;;;;4999152;28;19926;-66
2021/01/14 12:59:15;;;;;;;;;;;4.60;99.90;;;;;;4999187;28;19925;-66
2021/01/14 13:01:41;;;;;;;;;;;4.70;99.90;;;;;;4998878;28;19926;-66
2021/01/14 13:04:09;;;;;;;;;;;4.70;99.90;;;;;;5002081;28;19933;-66
2021/01/14 13:06:36;;;;;;;;;;;4.70;99.90;;;;;;5007180;28;19933;-65
2021/01/14 13:09:03;;;;;;;;;;;4.70;99.90;;;;;;5009230;28;19955;-65
2021/01/14 13:11:29;;;;;;;;;;;4.80;99.90;;;;;;5007092;28;19933;-66
2021/01/14 13:13:56;;;;;;;;;;;4.70;99.90;;;;;;5003424;28;19932;-66
2021/01/14 13:16:30;;;;;;;;;;;4.60;99.90;;;;;;5001360;28;19926;-66
2021/01/14 13:18:56;;;;;;;;;;;4.60;99.90;;;;;;5000918;28;19926;-66
2021/01/14 13:21:30;;;;;;;;;;;4.60;99.90;;;;;;5001016;28;19925;-66
2021/01/14 13:23:56;;;;;;;;;;;4.70;99.90;;;;;;5003370;28;19926;-66
2021/01/14 13:26:22;;;;;;;;;;;4.60;99.90;;;;;;5002622;28;20344;-66
2021/01/14 13:28:50;;;;;;;;;;;4.60;99.90;;;;;;5002603;28;19926;-66
2021/01/14 13:31:16;;;;;;;;;;;4.60;99.90;;;;;;5001868;28;19965;-65
2021/01/14 13:33:42;;;;;;;;;;;4.50;99.90;;;;;;4999585;28;19932;-66
2021/01/14 13:36:08;;;;;;;;;;;4.50;99.90;;;;;;4998834;28;19926;-65
2021/01/14 13:38:35;;;;;;;;;;;4.40;99.90;;;;;;4996470;28;19926;-68
2021/01/14 13:41:01;;;;;;;;;;;4.60;99.90;;;;;;4995170;28;19946;-68
2021/01/14 13:43:27;;;;;;;;;;;4.50;99.90;;;;;;4995396;28;19942;-67
2021/01/14 13:45:57;;;;;;;;;;;4.60;99.90;;;;;;4996307;28;19930;-66
2021/01/14 13:48:23;;;;;;;;;;;4.80;99.90;;;;;;4998195;28;19936;-65
2021/01/14 13:50:49;;;;;;;;;;;5.00;99.90;;;;;;4997998;28;19933;-65
2021/01/14 13:53:15;;;;;;;;;;;5.00;99.90;;;;;;4998427;28;19933;-65
2021/01/14 13:55:42;;;;;;;;;;;4.90;99.90;;;;;;4997515;28;19980;-65
2021/01/14 13:58:11;;;;;;;;;;;4.80;99.90;;;;;;5001816;28;19926;-65
2021/01/14 14:00:37;;;;;;;;;;;4.70;99.90;;;;;;4999702;28;19992;-65
2021/01/14 14:03:03;;;;;;;;;;;4.50;99.90;;;;;;4997826;28;19921;-65
2021/01/14 14:05:29;;;;;;;;;;;4.50;99.90;;;;;;4998157;28;19929;-65
2021/01/14 14:07:55;;;;;;;;;;;4.40;99.90;;;;;;4998936;28;19921;-65
2021/01/14 14:10:21;;;;;;;;;;;4.40;99.90;;;;;;4996733;28;19922;-67
2021/01/14 14:12:48;;;;;;;;;;;4.20;99.90;;;;;;4998801;28;20432;-66
2021/01/14 14:15:14;;;;;;;;;;;4.10;99.90;;;;;;4997793;28;20380;-66
2021/01/14 14:17:40;;;;;;;;;;;4.10;99.90;;;;;;4996546;28;19926;-64
2021/01/14 14:20:07;;;;;;;;;;;4.10;99.90;;;;;;4995356;28;19921;-66
2021/01/14 14:22:33;;;;;;;;;;;4.10;99.90;;;;;;4995677;28;19932;-67
2021/01/14 14:24:59;;;;;;;;;;;4.20;99.90;;;;;;4995932;28;19953;-66
2021/01/14 14:27:25;;;;;;;;;;;4.10;99.90;;;;;;4995637;28;19972;-66
2021/01/14 14:29:52;;;;;;;;;;;4.10;99.90;;;;;;4995740;28;19925;-66
2021/01/14 14:32:18;;;;;;;;;;;4.10;99.90;;;;;;4995037;28;19921;-65
2021/01/14 14:34:44;;;;;;;;;;;4.10;99.90;;;;;;4995025;28;19937;-66
2021/01/14 14:37:10;;;;;;;;;;;4.10;99.90;;;;;;4994578;28;20443;-65
2021/01/14 14:39:39;;;;;;;;;;;4.20;99.90;;;;;;4994867;28;19937;-66
2021/01/14 14:42:06;;;;;;;;;;;4.10;99.90;;;;;;4995196;28;19965;-66
2021/01/14 14:44:32;;;;;;;;;;;4.00;99.90;;;;;;4995984;28;19922;-65
2021/01/14 14:46:59;;;;;;;;;;;4.00;99.90;;;;;;4998274;28;19928;-67
2021/01/14 14:49:25;;;;;;;;;;;4.10;99.90;;;;;;5002410;28;19929;-65
2021/01/14 14:51:51;;;;;;;;;;;4.10;99.90;;;;;;5001970;28;19921;-65
2021/01/14 14:54:17;;;;;;;;;;;4.00;99.90;;;;;;4999399;28;19928;-66
2021/01/14 14:56:43;;;;;;;;;;;4.00;99.90;;;;;;4998820;28;19929;-66
2021/01/14 14:59:09;;;;;;;;;;;4.00;99.90;;;;;;4997718;28;19921;-66
2021/01/14 15:01:35;;;;;;;;;;;4.00;99.90;;;;;;4997021;28;19940;-66
2021/01/14 15:04:02;;;;;;;;;;;4.00;99.90;;;;;;4998237;28;20164;-66
2021/01/14 15:06:28;;;;;;;;;;;3.90;99.90;;;;;;5001045;28;20280;-66
2021/01/14 15:08:54;;;;;;;;;;;3.90;99.90;;;;;;5001550;28;19933;-66
2021/01/14 15:11:20;;;;;;;;;;;3.90;99.90;;;;;;5001817;28;19921;-67
2021/01/14 15:13:47;;;;;;;;;;;3.90;99.90;;;;;;5000819;28;19992;-66
2021/01/14 15:16:13;;;;;;;;;;;3.90;99.90;;;;;;5000612;28;19926;-66
2021/01/14 15:18:42;;;;;;;;;;;3.90;99.90;;;;;;5000609;28;19921;-66
2021/01/14 15:21:09;;;;;;;;;;;3.90;99.90;;;;;;4999760;28;19921;-66
2021/01/14 15:23:35;;;;;;;;;;;3.90;99.90;;;;;;4999570;28;19945;-67
2021/01/14 15:26:01;;;;;;;;;;;3.90;99.90;;;;;;4999137;28;19921;-64
2021/01/14 15:28:27;;;;;;;;;;;3.80;99.90;;;;;;4997693;28;19945;-66
2021/01/14 15:30:54;;;;;;;;;;;3.80;99.90;;;;;;4997554;28;19933;-66
2021/01/14 15:33:20;;;;;;;;;;;3.80;99.90;;;;;;4997754;28;19968;-65
2021/01/14 15:35:46;;;;;;;;;;;3.80;99.90;;;;;;4997620;28;19929;-66
2021/01/14 15:38:13;;;;;;;;;;;3.70;99.90;;;;;;4997741;28;19922;-67
2021/01/14 15:40:39;;;;;;;;;;;3.70;99.90;;;;;;4997331;28;19929;-66
2021/01/14 15:43:05;;;;;;;;;;;3.70;99.90;;;;;;4997511;28;19922;-66
2021/01/14 15:45:31;;;;;;;;;;;3.70;99.90;;;;;;4997586;28;20037;-63
2021/01/14 15:47:57;;;;;;;;;;;3.70;99.90;;;;;;4997364;28;19929;-64
2021/01/14 15:50:23;;;;;;;;;;;3.60;99.90;;;;;;4997378;28;19926;-63
2021/01/14 15:52:49;;;;;;;;;;;3.60;99.90;;;;;;4997000;28;19922;-60
2021/01/14 15:55:16;;;;;;;;;;;3.50;99.90;;;;;;4997621;28;19922;-60
2021/01/14 15:57:42;;;;;;;;;;;3.50;99.90;;;;;;4997540;28;19926;-61
2021/01/14 16:00:09;;;;;;;;;;;3.50;99.90;;;;;;4997964;28;19972;-60
2021/01/14 16:02:35;;;;;;;;;;;3.40;99.90;;;;;;4997338;28;20373;-62
2021/01/14 16:05:01;;;;;;;;;;;3.40;99.90;;;;;;4997356;28;19922;-63
2021/01/14 16:07:27;;;;;;;;;;;3.30;99.90;;;;;;4997107;28;19921;-61
2021/01/14 16:09:53;;;;;;;;;;;3.10;99.90;;;;;;4996906;28;19928;-61
2021/01/14 16:12:20;;;;;;;;;;;3.10;99.90;;;;;;4996796;28;20388;-61
2021/01/14 16:14:46;;;;;;;;;;;3.10;99.90;;;;;;4996765;28;19922;-61
2021/01/14 16:17:12;;;;;;;;;;;3.10;99.90;;;;;;4996826;28;20606;-61
2021/01/14 16:19:39;;;;;;;;;;;3.10;99.90;;;;;;4996850;28;19968;-61
2021/01/14 16:22:06;;;;;;;;;;;2.90;99.90;;;;;;4996847;28;20000;-61
2021/01/14 16:24:34;;;;;;;;;;;3.00;99.90;;;;;;4996903;28;19922;-61
2021/01/14 16:27:00;;;;;;;;;;;3.00;99.90;;;;;;4996998;28;19929;-61
2021/01/14 16:29:27;;;;;;;;;;;3.10;99.90;;;;;;4997280;28;19945;-62
2021/01/14 16:31:54;;;;;;;;;;;3.20;99.90;;;;;;4996642;28;19921;-61
2021/01/14 16:34:21;;;;;;;;;;;3.20;99.90;;;;;;4996590;28;19922;-62
2021/01/14 16:36:47;;;;;;;;;;;3.30;99.90;;;;;;4996470;28;19921;-62
2021/01/14 16:39:14;;;;;;;9.80;6.70;;;3.30;99.90;;;;;;5002617;28;19993;-62
2021/01/14 16:41:41;;;;;;;7.93;6.40;;;3.30;99.90;;;;;;4998783;28;20504;-61
2021/01/14 16:44:08;;;;;;;10.67;8.00;;;3.20;99.90;;;;;;4996821;28;20937;-62
2021/01/14 16:46:36;;;;;;;10.83;6.80;;;3.10;99.90;;;;;;4996950;28;20500;-62
2021/01/14 16:49:04;;;;;;;8.07;7.03;;;3.10;99.90;;;;;;4997059;28;20464;-61
2021/01/14 16:51:31;;;;;;;7.23;6.10;;;3.10;99.90;;;;;;4997469;28;20457;-61
2021/01/14 16:53:58;;;;;;;11.10;6.70;;;3.10;99.90;;;;;;4996216;28;20531;-61
2021/01/14 16:56:25;;;;;;;7.73;6.33;;;3.10;99.90;;;;;;4996557;28;20460;-60
2021/01/14 16:58:51;;;;;;;6.83;6.23;;;3.00;99.90;;;;;;4995779;28;20460;-61
2021/01/14 17:01:20;;;;;;;7.60;6.57;;;3.00;99.90;;;;;;4995573;28;20474;-61
2021/01/14 17:03:47;;;;;;;10.90;6.90;;;2.90;99.90;;;;;;4995893;28;20492;-62
2021/01/14 17:06:15;;;;;;;7.53;6.80;;;2.90;99.90;;;;;;4995312;28;21072;-62
2021/01/14 17:08:41;;;;;;;9.17;6.30;;;3.00;99.90;;;;;;4995746;28;20540;-61
2021/01/14 17:11:11;;;;;;;9.07;6.30;;;2.90;99.90;;;;;;4995453;28;20518;-61
2021/01/14 17:13:37;;;;;;;7.57;6.87;;;2.80;99.90;;;;;;4995271;28;20924;-61
2021/01/14 17:16:06;;;;;;;9.80;8.37;;;2.80;99.90;;;;;;4995535;28;20461;-61
2021/01/14 17:18:32;;;;;;;9.40;8.30;;;2.70;99.90;;;;;;4995554;28;20488;-62
2021/01/14 17:20:59;;;;;;;8.50;7.60;;;2.70;99.90;;;;;;4995198;28;20477;-63
2021/01/14 17:23:25;;;;;;;9.83;8.30;;;2.90;99.90;;;;;;4995402;28;20457;-62
2021/01/14 17:25:52;;;;;;;9.30;8.40;;;3.30;99.90;;;;;;4995323;28;20492;-61
2021/01/14 17:28:18;;;;;;;9.63;8.63;;;3.20;99.90;;;;;;4994388;28;20941;-62
2021/01/14 17:30:44;;;;;;;12.00;8.03;;;3.10;99.90;;;;;;4994801;28;21050;-62
2021/01/14 17:33:10;;;;;;;9.23;8.30;;;3.10;99.90;;;;;;4995146;28;20453;-62
2021/01/14 17:35:36;;;;;;;9.77;8.57;;;3.10;99.90;;;;;;4995038;28;20477;-61
2021/01/14 17:38:03;;;;;;;8.90;7.90;;;3.20;99.90;;;;;;4994887;28;20886;-61
2021/01/14 17:40:32;;;;;;;9.83;8.83;;;3.10;99.90;;;;;;4994994;28;20473;-62
2021/01/14 17:42:58;;;;;;;14.27;9.07;;;3.00;99.90;;;;;;4994834;28;20493;-61
2021/01/14 17:45:24;;;;;;;12.03;9.70;;;2.90;99.90;;;;;;4995296;28;20450;-61
2021/01/14 17:47:50;;;;;;;12.17;9.60;;;2.90;99.90;;;;;;4994480;28;20465;-61
2021/01/14 17:50:17;;;;;;;10.93;8.87;;;2.90;99.90;;;;;;4994767;28;20572;-62
2021/01/14 17:52:43;;;;;;;11.43;9.23;;;2.80;99.90;;;;;;4994586;28;20453;-62
2021/01/14 17:55:11;;;;;;;11.17;10.07;;;2.70;99.90;;;;;;4994867;28;20828;-62
2021/01/14 17:57:38;;;;;;;12.43;11.13;;;2.70;99.90;;;;;;4995151;28;20457;-61
2021/01/14 18:00:11;;;;;;;14.43;11.07;;;2.70;99.90;;;;;;4995030;28;20473;-62
2021/01/14 18:02:37;;;;;;;12.70;10.70;;;2.50;99.90;;;;;;4995298;28;20438;-62
2021/01/14 18:05:04;;;;;;;13.33;10.93;;;2.30;99.90;;;;;;4994858;28;20445;-63
2021/01/14 18:07:30;;;;;;;13.07;11.70;;;2.30;99.90;;;;;;4995253;28;20481;-61
2021/01/14 18:09:57;;;;;;;12.20;10.53;;;2.40;99.90;;;;;;4994871;28;20478;-64
2021/01/14 18:12:24;;;;;;;12.63;11.07;;;2.40;99.90;;;;;;4994717;28;20457;-64
2021/01/14 18:14:51;;;;;;;15.70;11.37;;;2.30;99.90;;;;;;5016918;23;20488;-63
2021/01/14 18:17:17;;;;;;;11.53;10.43;;;2.30;99.90;;;;;;5015988;28;20460;-64
2021/01/14 18:19:43;;;;;;;14.90;9.97;;;2.40;99.90;;;;;;5017495;28;20460;-62
2021/01/14 18:22:09;;;;;;;21.63;11.07;;;2.50;99.90;;;;;;5017139;28;20548;-64
2021/01/14 18:24:36;;;;;;;12.30;10.13;;;2.50;99.90;;;;;;5016267;28;20477;-63
2021/01/14 18:27:02;;;;;;;14.10;11.73;;;2.50;99.90;;;;;;5016216;28;20939;-64
2021/01/14 18:29:29;;;;;;;12.90;11.43;;;2.50;99.90;;;;;;5019683;28;20453;-63
2021/01/14 18:31:55;;;;;;;12.10;10.20;;;2.50;99.90;;;;;;5018746;28;20453;-64
2021/01/14 18:34:21;;;;;;;10.23;9.20;;;2.50;99.90;;;;;;5018317;28;20822;-64
2021/01/14 18:36:47;;;;;;;10.60;9.50;;;2.40;99.90;;;;;;5019225;28;20464;-65
2021/01/14 18:39:13;;;;;;;13.80;9.53;;;2.30;99.90;;;;;;5018928;28;20464;-62
2021/01/14 18:41:40;;;;;;;16.13;9.97;;;2.20;99.90;;;;;;5019783;28;20453;-62
2021/01/14 18:44:07;;;;;;;13.77;10.10;;;2.10;99.90;;;;;;5020836;28;20449;-63
2021/01/14 18:46:34;;;;;;;13.23;9.83;;;2.00;99.90;;;;;;5029890;28;20459;-64
2021/01/14 18:49:00;;;;;;;10.40;9.30;;;1.90;99.90;;;;;;5028032;28;20449;-63
2021/01/14 18:51:26;;;;;;;17.60;9.37;;;2.00;99.90;;;;;;5026846;28;20864;-63
2021/01/14 18:53:52;;;;;;;13.30;9.87;;;2.00;99.90;;;;;;5027352;28;20460;-62
2021/01/14 18:56:23;;;;;;;11.43;8.83;;;2.00;99.90;;;;;;5024354;28;20503;-64
2021/01/14 18:58:49;;;;;;;14.27;10.30;;;2.00;99.90;;;;;;5022761;28;20453;-64
2021/01/14 19:01:16;;;;;;;12.73;10.83;;;2.10;99.90;;;;;;5022604;28;20459;-64
2021/01/14 19:03:43;;;;;;;12.53;10.73;;;2.10;99.90;;;;;;5030201;28;20456;-62
2021/01/14 19:06:09;;;;;;;12.00;10.77;;;2.10;99.90;;;;;;5026606;28;20464;-65
2021/01/14 19:08:36;;;;;;;11.53;10.33;;;2.00;99.90;;;;;;5021574;28;20962;-62
2021/01/14 19:11:02;;;;;;;11.07;9.90;;;1.90;99.90;;;;;;5023921;28;20452;-62